This is the latest recevied weather packets stored in our database for station/object IVARAZ6. If no packets are shown the sender has not sent any weather packets the latest 10 day(s).
| Time | Temp. | Humidity | Pressure | Rain* | Wind** | Luminosity | Snow |
|---|---|---|---|---|---|---|---|
| 1778266585 | 18.89° C | 70% | 1012.1 hPa | 0 mm | - | 0 W/m² | - |
| 1778266282 | 19.44° C | 69% | 1012.1 hPa | 0 mm | - | 0 W/m² | - |
| 1778265082 | 19.44° C | 68% | 1011.8 hPa | 0 mm | - | 5 W/m² | - |
| 1778263282 | 20.56° C | 66% | 1011.5 hPa | 0 mm | - | 16 W/m² | - |
| 1778260279 | 22.78° C | 55% | 1011 hPa | 0 mm | - | 125 W/m² | - |
| 1778259983 | 22.78° C | 55% | 1011 hPa | 0 mm | - | 139 W/m² | - |
| 1778259679 | 22.78° C | 56% | 1011 hPa | 0 mm | - | 139 W/m² | - |
| 1778259379 | 22.78° C | 55% | 1011 hPa | 0 mm | - | 135 W/m² | - |
| 1778258785 | 23.33° C | 54% | 1011 hPa | 0 mm | - | 207 W/m² | - |
| 1778258482 | 23.33° C | 54% | 1010.9 hPa | 0 mm | - | 220 W/m² | - |
| 1778258179 | 23.33° C | 54% | 1010.9 hPa | 0 mm | - | 255 W/m² | - |
| 1778256679 | 22.78° C | 57% | 1010.9 hPa | 0 mm | - | 294 W/m² | - |
| 1778256079 | 23.33° C | 57% | 1010.9 hPa | 0 mm | - | 369 W/m² | - |
| 1778255479 | 23.33° C | 55% | 1010.9 hPa | 0 mm | - | 396 W/m² | - |
| 1778254279 | 22.22° C | 58% | 1011 hPa | 0 mm | - | 459 W/m² | - |
| 1778253985 | 22.78° C | 58% | 1011 hPa | 0 mm | - | 473 W/m² | - |
| 1778252782 | 22.78° C | 57% | 1011 hPa | 0 mm | - | 540 W/m² | - |
| 1778252485 | 22.78° C | 55% | 1011 hPa | 0 mm | - | 536 W/m² | - |
| 1778251879 | 22.78° C | 57% | 1011.1 hPa | 0 mm | - | 568 W/m² | - |
| 1778248282 | 22.22° C | 65% | 1011.5 hPa | 0 mm | - | 724 W/m² | - |
| 1778247679 | 23.33° C | 58% | 1011.4 hPa | 0 mm | - | 756 W/m² | - |
| 1778246782 | 23.33° C | 53% | 1011.6 hPa | 0 mm | - | 812 W/m² | - |
| 1778245879 | 23.89° C | 52% | 1011.5 hPa | 0 mm | - | 849 W/m² | - |
| 1778245285 | 23.89° C | 55% | 1011.5 hPa | 0 mm | - | 884 W/m² | - |
| 1778244982 | 23.33° C | 53% | 1011.5 hPa | 0 mm | - | 784 W/m² | - |
* Rain latest hour (hover to see other rain measurements)
** Current wind speed in m/s (hover to see current wind gust speed)